Time;durP1;ratioP1;P1;durP2;ratioP2;P2;SDS_P1;SDS_P2;PMS_P1;PMS_P2;Temp;Humidity;BMP_temperature;BMP_pressure;BME280_temperature;BME280_humidity;BME280_pressure;Samples;Min_cycle;Max_cycle;Signal;HPM_P1;HPM_P2
2023/05/14 00:02:25;;;;;;;26.80;15.57;;;;;;;10.06;52.14;98902.81;5054259;28;20036;-71
2023/05/14 00:04:52;;;;;;;27.25;14.90;;;;;;;10.00;51.98;98893.78;5050661;28;20032;-71
2023/05/14 00:07:17;;;;;;;22.85;14.40;;;;;;;9.96;52.07;98898.22;5053153;28;20470;-71
2023/05/14 00:09:42;;;;;;;23.40;14.05;;;;;;;9.89;52.18;98890.28;5053315;28;20028;-71
2023/05/14 00:12:08;;;;;;;26.50;14.77;;;;;;;9.86;52.48;98890.03;5053092;28;20013;-71
2023/05/14 00:14:33;;;;;;;22.27;13.65;;;;;;;9.82;52.22;98885.13;5053513;28;20029;-71
2023/05/14 00:16:59;;;;;;;25.00;14.82;;;;;;;9.79;52.61;98888.41;5052978;28;20378;-72
2023/05/14 00:19:24;;;;;;;23.10;14.18;;;;;;;9.75;52.96;98890.06;5051900;28;20021;-71
2023/05/14 00:21:50;;;;;;;23.08;14.05;;;;;;;9.72;52.71;98887.88;5052963;28;20029;-71
2023/05/14 00:24:15;;;;;;;23.85;14.05;;;;;;;9.72;52.99;98887.09;5052465;28;20032;-71
2023/05/14 00:26:41;;;;;;;25.13;14.70;;;;;;;9.69;52.51;98880.22;5053330;28;20182;-71
2023/05/14 00:29:06;;;;;;;22.38;13.77;;;;;;;9.66;53.28;98883.53;5052955;28;20465;-71
2023/05/14 00:31:31;;;;;;;22.83;13.50;;;;;;;9.63;53.01;98879.44;5053349;28;20354;-71
2023/05/14 00:33:57;;;;;;;21.38;13.80;;;;;;;9.60;53.37;98865.47;5053254;28;20025;-70
2023/05/14 00:36:22;;;;;;;22.15;13.50;;;;;;;9.56;53.15;98883.59;5052993;28;20029;-70
2023/05/14 00:38:48;;;;;;;20.25;13.23;;;;;;;9.51;52.73;98879.75;5052640;28;20092;-70
2023/05/14 00:41:13;;;;;;;22.58;13.32;;;;;;;9.47;53.24;98888.78;5053041;28;20029;-71
2023/05/14 00:43:39;;;;;;;20.65;12.77;;;;;;;9.42;52.83;98878.69;5052959;28;20033;-70
2023/05/14 00:46:04;;;;;;;18.58;12.73;;;;;;;9.41;52.86;98884.41;5052843;28;20025;-70
2023/05/14 00:48:30;;;;;;;20.77;13.13;;;;;;;9.36;53.50;98885.25;5052601;28;20044;-70
2023/05/14 00:50:55;;;;;;;22.50;13.18;;;;;;;9.32;53.17;98895.97;5052814;28;20465;-70
2023/05/14 00:53:21;;;;;;;21.98;12.95;;;;;;;9.30;53.32;98894.59;5052697;28;20033;-71
2023/05/14 00:55:48;;;;;;;19.08;13.23;;;;;;;9.26;53.73;98901.72;5052756;28;20140;-70
2023/05/14 00:58:14;;;;;;;21.38;13.40;;;;;;;9.22;53.51;98902.25;5052693;28;20021;-70
2023/05/14 01:00:41;;;;;;;22.58;13.00;;;;;;;9.19;53.84;98904.75;5052667;28;20420;-70
2023/05/14 01:03:07;;;;;;;20.77;12.95;;;;;;;9.15;53.89;98901.75;5052757;28;20429;-71
2023/05/14 01:05:50;;;;;;;18.23;13.05;;;;;;;9.14;54.15;98902.84;5051290;28;20029;-71
2023/05/14 01:08:53;;;;;;;20.50;12.40;;;;;;;9.12;53.72;98902.28;5052691;28;20029;-70
2023/05/14 01:11:28;;;;;;;16.08;11.65;;;;;;;9.09;53.79;98900.91;5052425;28;20029;-70
2023/05/14 01:14:12;;;;;;;21.00;12.40;;;;;;;9.07;54.28;98902.28;5052705;28;20036;-71
2023/05/14 01:16:39;;;;;;;18.27;11.65;;;;;;;9.06;54.42;98906.94;5052534;28;20021;-71
2023/05/14 01:19:09;;;;;;;15.93;12.07;;;;;;;9.02;54.03;98900.38;5052270;28;20036;-71
2023/05/14 01:21:39;;;;;;;16.70;11.57;;;;;;;9.00;53.91;98897.09;5052390;28;20029;-71
2023/05/14 01:24:06;;;;;;;18.67;11.38;;;;;;;9.01;54.51;98900.66;5052638;28;20028;-72
2023/05/14 01:26:32;;;;;;;18.73;12.05;;;;;;;9.03;54.21;98898.47;5052304;28;20122;-71
2023/05/14 01:29:07;;;;;;;18.88;11.52;;;;;;;9.02;54.75;98888.63;5052268;28;20029;-71
2023/05/14 01:31:36;;;;;;;16.92;11.05;;;;;;;9.03;54.61;98888.31;5052329;28;20106;-71
2023/05/14 01:34:04;;;;;;;18.75;11.00;;;;;;;9.04;54.75;98891.91;5052079;28;20051;-71
2023/05/14 01:36:31;;;;;;;17.45;11.45;;;;;;;9.04;54.42;98884.50;5052552;28;20029;-71
2023/05/14 01:38:57;;;;;;;16.42;11.50;;;;;;;9.04;54.87;98884.50;5051919;28;20057;-71
2023/05/14 01:41:24;;;;;;;17.33;11.07;;;;;;;9.03;54.94;98887.53;5052102;28;20072;-71
2023/05/14 01:43:50;;;;;;;14.90;9.98;;;;;;;9.03;54.95;98885.59;5052151;28;20029;-72
2023/05/14 01:46:19;;;;;;;16.90;11.02;;;;;;;9.03;54.77;98880.13;5050823;28;20425;-71
2023/05/14 01:48:45;;;;;;;17.05;10.50;;;;;;;9.05;55.33;98882.59;5052125;28;20075;-71
2023/05/14 01:51:13;;;;;;;14.02;10.20;;;;;;;9.04;54.78;98886.44;5052337;28;20416;-71
2023/05/14 01:53:38;;;;;;;16.30;10.43;;;;;;;9.03;54.96;98882.84;5051989;28;20033;-71
2023/05/14 01:56:04;;;;;;;15.82;10.88;;;;;;;9.05;54.99;98877.13;5052039;28;20116;-71
2023/05/14 01:58:29;;;;;;;14.10;10.35;;;;;;;9.05;55.12;98877.94;5051921;28;20029;-71
2023/05/14 02:00:55;;;;;;;13.73;10.30;;;;;;;9.06;55.72;98886.97;5051928;28;20033;-72
2023/05/14 02:03:20;;;;;;;16.67;11.55;;;;;;;9.08;55.08;98887.53;5052021;28;20051;-71
2023/05/14 02:05:46;;;;;;;19.02;11.98;;;;;;;9.08;55.82;98874.66;5051864;28;20033;-71
2023/05/14 02:08:11;;;;;;;17.77;11.93;;;;;;;9.09;55.44;98878.22;5051938;28;20032;-71
2023/05/14 02:10:36;;;;;;;16.90;11.52;;;;;;;9.11;55.55;98870.56;5051768;28;20100;-71
2023/05/14 02:13:02;;;;;;;16.27;11.23;;;;;;;9.11;55.95;98873.28;5051913;28;20028;-72
2023/05/14 02:15:28;;;;;;;16.75;11.27;;;;;;;9.13;55.51;98873.84;5051769;28;20477;-71
2023/05/14 02:17:53;;;;;;;15.75;11.15;;;;;;;9.16;55.74;98873.28;5051644;28;20040;-71
2023/05/14 02:20:18;;;;;;;17.73;11.07;;;;;;;9.15;55.90;98868.06;5051871;28;20044;-72
2023/05/14 02:22:45;;;;;;;15.93;11.35;;;;;;;9.18;55.70;98873.00;5051880;28;20028;-72
2023/05/14 02:25:10;;;;;;;15.70;11.35;;;;;;;9.18;55.55;98868.31;5051751;28;20096;-72
2023/05/14 02:27:36;;;;;;;16.65;11.15;;;;;;;9.17;55.56;98871.34;5051726;28;20033;-72
2023/05/14 02:30:03;;;;;;;16.58;11.52;;;;;;;9.16;55.82;98866.97;5051459;28;20040;-72
2023/05/14 02:32:28;;;;;;;18.67;12.05;;;;;;;9.15;55.53;98857.97;5051862;28;20104;-71
2023/05/14 02:34:54;;;;;;;17.92;12.00;;;;;;;9.13;55.93;98864.78;5051657;28;20128;-71
2023/05/14 02:37:19;;;;;;;18.55;12.05;;;;;;;9.13;55.93;98856.59;5051899;28;20519;-71
2023/05/14 02:39:44;;;;;;;16.08;11.77;;;;;;;9.09;55.96;98854.41;5051297;28;20051;-72
2023/05/14 02:42:10;;;;;;;16.45;11.55;;;;;;;9.04;55.99;98845.38;5051472;28;20059;-72
2023/05/14 02:44:35;;;;;;;15.45;10.95;;;;;;;9.00;55.86;98845.09;5050278;28;20492;-72
2023/05/14 02:47:01;;;;;;;16.52;11.52;;;;;;;8.97;55.89;98845.66;5053473;28;20025;-72
2023/05/14 02:49:26;;;;;;;18.25;12.20;;;;;;;8.95;55.93;98836.94;5055141;28;20070;-72
2023/05/14 02:51:53;;;;;;;18.00;11.32;;;;;;;8.92;55.78;98842.94;5055075;28;20029;-72
2023/05/14 02:54:18;;;;;;;16.35;11.77;;;;;;;8.91;55.93;98828.44;5055052;28;20104;-72
2023/05/14 02:56:44;;;;;;;15.15;11.55;;;;;;;8.89;56.14;98835.28;5055063;28;20053;-71
2023/05/14 02:59:09;;;;;;;17.60;12.10;;;;;;;8.87;56.15;98821.88;5055019;28;20462;-71
2023/05/14 03:01:34;;;;;;;14.68;11.60;;;;;;;8.88;56.50;98823.53;5054682;28;20086;-72
2023/05/14 03:04:00;;;;;;;18.35;12.30;;;;;;;8.87;56.16;98821.88;5054980;28;20043;-72
2023/05/14 03:06:25;;;;;;;17.00;11.95;;;;;;;8.84;56.76;98824.34;5053558;28;20025;-71
2023/05/14 03:08:51;;;;;;;15.20;11.50;;;;;;;8.82;56.50;98826.53;5055401;28;20512;-71
2023/05/14 03:11:16;;;;;;;16.77;11.98;;;;;;;8.80;56.30;98813.13;5054750;28;20025;-71
2023/05/14 03:13:41;;;;;;;18.73;12.57;;;;;;;8.79;56.89;98830.63;5054623;28;20057;-72
2023/05/14 03:16:07;;;;;;;17.13;11.18;;;;;;;8.78;56.37;98820.78;5054505;28;20040;-71
2023/05/14 03:18:33;;;;;;;18.90;12.30;;;;;;;8.75;56.57;98821.38;5054657;28;20021;-71
2023/05/14 03:20:59;;;;;;;18.48;12.25;;;;;;;8.76;56.46;98812.06;5054617;28;20476;-71
2023/05/14 03:23:24;;;;;;;15.50;11.52;;;;;;;8.75;56.82;98819.44;5054586;28;20116;-71
2023/05/14 03:25:49;;;;;;;17.17;12.43;;;;;;;8.75;56.85;98818.63;5054633;28;20142;-72
2023/05/14 03:28:16;;;;;;;18.58;11.85;;;;;;;8.73;56.77;98818.91;5054686;28;20119;-71
2023/05/14 03:30:41;;;;;;;16.60;11.55;;;;;;;8.72;57.16;98825.47;5054610;28;20033;-72
2023/05/14 03:33:07;;;;;;;17.77;12.20;;;;;;;8.72;56.38;98822.72;5054260;28;20434;-72
2023/05/14 03:35:32;;;;;;;18.60;12.70;;;;;;;8.71;57.08;98821.09;5054355;28;20025;-71
2023/05/14 03:37:58;;;;;;;18.42;11.98;;;;;;;8.70;57.06;98818.63;5053977;28;20029;-71
2023/05/14 03:40:24;;;;;;;18.88;12.95;;;;;;;8.69;56.47;98822.47;5054223;28;20025;-72
2023/05/14 03:42:49;;;;;;;17.63;11.57;;;;;;;8.70;57.11;98822.19;5052326;28;20052;-72
2023/05/14 03:45:15;;;;;;;18.23;12.07;;;;;;;8.70;57.50;98824.91;5053754;28;20155;-72
2023/05/14 03:47:40;;;;;;;16.35;11.55;;;;;;;8.71;57.42;98832.03;5053828;28;20040;-71
2023/05/14 03:50:07;;;;;;;17.08;11.90;;;;;;;8.72;57.21;98832.84;5054376;28;20029;-71
2023/05/14 03:52:32;;;;;;;17.95;12.40;;;;;;;8.73;57.69;98826.28;5054321;28;20028;-72
2023/05/14 03:54:58;;;;;;;16.15;11.73;;;;;;;8.73;57.53;98824.38;5053987;28;20459;-71
2023/05/14 03:57:23;;;;;;;14.38;10.93;;;;;;;8.75;57.67;98821.38;5053805;28;20107;-72
2023/05/14 03:59:48;;;;;;;16.98;11.60;;;;;;;8.74;57.54;98815.06;5053665;28;20087;-71
2023/05/14 04:02:14;;;;;;;15.45;11.38;;;;;;;8.75;57.87;98821.38;5053809;28;20025;-72
2023/05/14 04:04:41;;;;;;;17.02;11.02;;;;;;;8.77;58.09;98821.88;5053973;28;20082;-71
2023/05/14 04:07:07;;;;;;;14.80;11.38;;;;;;;8.79;57.91;98820.53;5053543;28;20122;-71
2023/05/14 04:09:33;;;;;;;16.85;11.35;;;;;;;8.83;58.11;98825.44;5053684;28;20028;-71
2023/05/14 04:11:58;;;;;;;15.20;11.30;;;;;;;8.83;58.29;98823.53;5053894;28;20104;-71
2023/05/14 04:14:24;;;;;;;16.80;11.68;;;;;;;8.85;57.88;98817.78;5053845;28;20495;-72
2023/05/14 04:16:49;;;;;;;16.75;12.35;;;;;;;8.87;57.92;98826.53;5053600;28;20025;-73
2023/05/14 04:19:14;;;;;;;18.42;13.25;;;;;;;8.89;57.97;98813.41;5053363;28;20071;-73
2023/05/14 04:21:40;;;;;;;17.85;13.52;;;;;;;8.91;58.25;98808.50;5053411;28;20033;-71
2023/05/14 04:24:05;;;;;;;17.35;13.00;;;;;;;8.93;58.65;98819.97;5053210;28;20056;-71
2023/05/14 04:26:31;;;;;;;17.55;12.32;;;;;;;8.96;58.14;98807.66;5053234;28;20037;-71
2023/05/14 04:28:57;;;;;;;18.63;12.38;;;;;;;8.99;58.60;98818.84;5053295;28;20108;-71
2023/05/14 04:31:22;;;;;;;17.92;12.13;;;;;;;9.01;58.54;98819.38;5051727;28;20139;-71
2023/05/14 04:33:47;;;;;;;16.50;11.90;;;;;;;9.03;58.90;98810.91;5053266;28;20434;-72
2023/05/14 04:36:13;;;;;;;17.80;12.07;;;;;;;9.06;59.01;98807.63;5053053;28;20029;-71
2023/05/14 04:38:38;;;;;;;18.63;13.10;;;;;;;9.09;59.09;98812.53;5052917;28;20052;-72
2023/05/14 04:41:04;;;;;;;16.50;13.07;;;;;;;9.13;59.61;98810.91;5052781;28;20025;-71
2023/05/14 04:43:30;;;;;;;16.88;12.90;;;;;;;9.18;59.42;98821.00;5053038;28;20036;-72
2023/05/14 04:45:55;;;;;;;18.35;12.70;;;;;;;9.22;59.89;98817.41;5052930;28;20028;-72
2023/05/14 04:48:21;;;;;;;16.35;12.63;;;;;;;9.26;59.53;98814.97;5053010;28;20120;-71
2023/05/14 04:50:46;;;;;;;16.90;12.30;;;;;;;9.32;60.55;98815.75;5052714;28;20029;-71
2023/05/14 04:53:12;;;;;;;17.85;11.90;;;;;;;9.36;60.21;98820.41;5052758;28;20389;-72
2023/05/14 04:55:37;;;;;;;15.95;11.45;;;;;;;9.42;60.42;98812.97;5052695;28;20026;-72
2023/05/14 04:58:03;;;;;;;16.90;11.77;;;;;;;9.48;60.23;98811.88;5052880;28;20347;-71
2023/05/14 05:00:29;;;;;;;15.15;11.57;;;;;;;9.53;60.62;98811.84;5052602;28;20029;-71
2023/05/14 05:02:54;;;;;;;14.75;11.57;;;;;;;9.59;60.50;98807.16;5052662;28;20043;-71
2023/05/14 05:05:20;;;;;;;16.05;11.65;;;;;;;9.65;60.75;98817.00;5052455;28;20025;-72
2023/05/14 05:07:45;;;;;;;16.98;11.50;;;;;;;9.72;61.24;98816.66;5052594;28;20033;-71
2023/05/14 05:10:11;;;;;;;17.20;12.00;;;;;;;9.77;61.20;98813.09;5052030;28;20108;-71
2023/05/14 05:12:36;;;;;;;18.00;11.98;;;;;;;9.83;60.53;98815.53;5052799;28;20476;-71
2023/05/14 05:15:02;;;;;;;15.75;11.68;;;;;;;9.90;61.20;98812.47;5052316;28;20355;-71
2023/05/14 05:17:28;;;;;;;17.05;11.98;;;;;;;9.98;61.04;98813.81;5052397;28;20082;-72
2023/05/14 05:19:53;;;;;;;16.02;10.75;;;;;;;10.05;61.15;98808.00;5052237;28;20048;-71
2023/05/14 05:22:19;;;;;;;15.05;10.68;;;;;;;10.13;61.51;98810.94;5052268;28;20518;-71
2023/05/14 05:24:44;;;;;;;13.75;10.30;;;;;;;10.22;61.68;98811.16;5052411;28;20033;-72
2023/05/14 05:27:10;;;;;;;16.58;11.00;;;;;;;10.30;60.87;98808.91;5052298;28;20033;-72
2023/05/14 05:29:36;;;;;;;13.48;11.20;;;;;;;10.36;61.35;98814.09;5052499;28;20514;-71
2023/05/14 05:32:01;;;;;;;14.65;10.75;;;;;;;10.42;60.87;98818.44;5051877;28;20510;-71
2023/05/14 05:34:27;;;;;;;15.25;11.27;;;;;;;10.52;61.74;98816.72;5052498;28;20025;-72
2023/05/14 05:36:52;;;;;;;15.70;10.48;;;;;;;10.59;61.50;98811.72;5052107;28;20025;-72
2023/05/14 05:39:17;;;;;;;13.48;9.93;;;;;;;10.66;61.05;98814.97;5051912;28;20048;-72
2023/05/14 05:41:43;;;;;;;16.90;10.32;;;;;;;10.75;60.63;98815.16;5052051;28;20025;-71
2023/05/14 05:44:08;;;;;;;15.57;9.55;;;;;;;10.85;61.48;98815.06;5052219;28;20045;-72
2023/05/14 05:46:34;;;;;;;13.55;9.77;;;;;;;10.96;61.70;98813.03;5047687;28;20103;-71
2023/05/14 05:48:59;;;;;;;12.88;9.45;;;;;;;11.06;61.10;98812.09;5051226;28;20133;-71
2023/05/14 05:51:25;;;;;;;13.57;9.18;;;;;;;11.16;61.15;98816.69;5050949;28;20465;-72
2023/05/14 05:53:50;;;;;;;13.48;8.65;;;;;;;11.25;60.29;98823.16;5050842;28;20025;-71
2023/05/14 05:56:15;;;;;;;11.65;8.82;;;;;;;11.32;60.63;98812.63;5049905;28;20033;-72
2023/05/14 05:58:42;;;;;;;11.75;8.43;;;;;;;11.41;60.83;98810.03;5050519;28;20510;-72
2023/05/14 06:01:07;;;;;;;12.70;9.15;;;;;;;11.48;60.89;98804.22;5050910;28;20104;-72
2023/05/14 06:03:32;;;;;;;10.38;8.45;;;;;;;11.57;60.63;98796.13;5050887;28;20107;-72
2023/05/14 06:05:58;;;;;;;12.02;8.65;;;;;;;11.67;60.50;98790.50;5050891;28;20013;-71
2023/05/14 06:08:23;;;;;;;12.57;8.68;;;;;;;11.76;60.88;98790.66;5050810;28;20093;-71
2023/05/14 06:10:49;;;;;;;12.48;9.20;;;;;;;11.87;60.92;98794.91;5050984;28;20017;-72
2023/05/14 06:13:14;;;;;;;10.45;7.68;;;;;;;11.97;60.90;98791.19;5050359;28;20024;-73
2023/05/14 06:15:39;;;;;;;10.00;7.95;;;;;;;12.08;61.27;98788.31;5050809;28;20033;-73
2023/05/14 06:18:05;;;;;;;10.15;7.93;;;;;;;12.19;60.97;98787.88;5050766;28;20025;-72
2023/05/14 06:20:30;;;;;;;12.00;7.80;;;;;;;12.30;60.86;98787.72;5050682;28;20068;-75
2023/05/14 06:22:56;;;;;;;12.27;7.97;;;;;;;12.40;60.59;98786.72;5054585;28;20037;-76
2023/05/14 06:25:21;;;;;;;13.00;9.07;;;;;;;12.49;60.79;98791.22;5054287;28;20063;-74
2023/05/14 06:27:47;;;;;;;12.77;8.60;;;;;;;12.58;60.64;98788.63;5054117;28;20025;-74
2023/05/14 06:30:13;;;;;;;11.23;8.07;;;;;;;12.68;60.85;98789.53;5054263;28;20124;-74
2023/05/14 06:32:38;;;;;;;12.73;8.45;;;;;;;12.76;60.83;98778.69;5054135;28;20539;-72
2023/05/14 06:35:04;;;;;;;13.45;8.43;;;;;;;12.86;60.53;98785.09;5052919;28;20104;-71
2023/05/14 06:37:30;;;;;;;12.02;7.95;;;;;;;12.95;60.09;98788.78;5054358;28;20055;-71
2023/05/14 06:39:55;;;;;;;11.48;8.05;;;;;;;13.05;60.60;98796.03;5053976;28;20084;-71
2023/05/14 06:42:21;;;;;;;10.15;8.00;;;;;;;13.14;60.40;98791.44;5054632;28;20032;-70
2023/05/14 06:44:46;;;;;;;11.13;7.65;;;;;;;13.23;60.37;98788.81;5054785;28;20033;-71
2023/05/14 06:47:11;;;;;;;12.45;7.85;;;;;;;13.32;60.56;98788.91;5053499;28;20055;-70
2023/05/14 06:49:38;;;;;;;10.35;7.95;;;;;;;13.42;60.33;98779.66;5053907;28;20300;-71
2023/05/14 06:52:03;;;;;;;11.23;7.82;;;;;;;13.50;60.05;98778.94;5052419;28;20029;-73
2023/05/14 06:54:29;;;;;;;9.98;7.55;;;;;;;13.59;60.21;98779.03;5053190;28;20035;-73
2023/05/14 06:56:55;;;;;;;9.73;7.80;;;;;;;13.67;60.66;98775.53;5052734;28;20029;-73
2023/05/14 06:59:21;;;;;;;9.63;7.25;;;;;;;13.74;60.01;98778.69;5049938;28;20036;-72
2023/05/14 07:01:46;;;;;;;8.77;7.32;;;;;;;13.83;59.54;98781.53;5052490;28;20078;-73
2023/05/14 07:04:12;;;;;;;10.95;7.70;;;;;;;13.88;59.71;98780.59;5051099;28;20083;-74
2023/05/14 07:06:37;;;;;;;9.60;6.78;;;;;;;13.95;59.54;98783.75;5051727;28;20109;-74
2023/05/14 07:09:03;;;;;;;7.82;6.82;;;;;;;14.02;59.56;98783.34;5050708;28;20504;-73
2023/05/14 07:11:28;;;;;;;11.80;8.23;;;;;;;14.09;59.40;98783.69;5051850;28;20025;-74
2023/05/14 07:13:53;;;;;;;8.23;6.82;;;;;;;14.17;59.58;98774.69;5053180;28;20528;-73
2023/05/14 07:16:19;;;;;;;9.85;7.10;;;;;;;14.26;59.35;98777.53;5052680;28;20079;-73
2023/05/14 07:18:45;;;;;;;8.63;6.45;;;;;;;14.34;59.21;98781.47;5053288;28;20037;-73
2023/05/14 07:21:10;;;;;;;8.93;6.35;;;;;;;14.39;59.17;98779.38;5055171;28;20037;-73
2023/05/14 07:23:37;;;;;;;7.60;5.45;;;;;;;14.47;59.06;98777.00;5055643;28;20056;-73
2023/05/14 07:26:04;;;;;;;8.02;5.95;;;;;;;14.56;58.92;98783.41;5055262;28;20024;-73
2023/05/14 07:28:30;;;;;;;6.82;5.13;;;;;;;14.65;59.22;98795.31;5054255;28;20029;-74
2023/05/14 07:30:55;;;;;;;5.35;4.50;;;;;;;14.67;58.36;98786.72;5055013;28;20037;-73
2023/05/14 07:33:21;;;;;;;5.82;4.65;;;;;;;14.70;58.21;98792.44;5054445;28;20039;-74
2023/05/14 07:35:46;;;;;;;6.38;5.18;;;;;;;14.79;58.52;98786.16;5055291;28;20032;-75
2023/05/14 07:38:12;;;;;;;7.60;5.90;;;;;;;14.88;58.39;98785.06;5053958;28;20048;-73
2023/05/14 07:40:37;;;;;;;5.65;4.68;;;;;;;14.96;57.95;98782.66;5054677;28;20029;-74
2023/05/14 07:43:03;;;;;;;5.65;4.63;;;;;;;15.03;58.04;98774.75;5054313;28;20090;-75
2023/05/14 07:45:28;;;;;;;6.70;4.43;;;;;;;15.10;57.83;98769.59;5054004;28;20052;-73
2023/05/14 07:47:53;;;;;;;5.50;4.68;;;;;;;15.12;57.12;98772.00;5054746;28;20025;-74
2023/05/14 07:50:19;;;;;;;5.68;4.55;;;;;;;15.14;56.47;98769.75;5054576;28;20450;-74
2023/05/14 07:52:44;;;;;;;7.88;4.72;;;;;;;15.16;56.88;98770.25;5054555;28;20035;-73
2023/05/14 07:55:11;;;;;;;6.88;4.93;;;;;;;15.18;56.64;98755.00;5054273;28;20116;-72
2023/05/14 07:57:37;;;;;;;7.07;5.00;;;;;;;15.23;56.55;98750.47;5054739;28;20107;-73
2023/05/14 08:00:06;;;;;;;6.07;4.78;;;;;;;15.26;56.03;98749.81;5054199;28;20132;-72
2023/05/14 08:02:32;;;;;;;5.93;4.28;;;;;;;15.27;55.85;98749.50;5054328;28;20431;-73
2023/05/14 08:04:57;;;;;;;8.05;4.85;;;;;;;15.32;55.79;98738.28;5054663;28;20025;-74
2023/05/14 08:07:23;;;;;;;6.13;4.53;;;;;;;15.39;56.17;98731.47;5054616;28;20078;-74
2023/05/14 08:09:49;;;;;;;5.78;4.75;;;;;;;15.42;55.83;98734.41;5054629;28;20024;-74
2023/05/14 08:12:15;;;;;;;5.47;4.80;;;;;;;15.45;55.60;98731.00;5054637;28;20013;-74
2023/05/14 08:14:40;;;;;;;6.28;4.55;;;;;;;15.53;55.88;98732.13;5054618;28;20018;-74
2023/05/14 08:17:05;;;;;;;7.65;4.55;;;;;;;15.60;55.79;98731.69;5054461;28;20444;-74
2023/05/14 08:19:31;;;;;;;7.63;4.72;;;;;;;15.69;55.80;98726.97;5054206;28;20045;-74
2023/05/14 08:21:57;;;;;;;5.35;4.45;;;;;;;15.78;55.77;98721.44;5054345;28;20359;-74
2023/05/14 08:24:22;;;;;;;6.88;4.43;;;;;;;15.87;55.54;98718.72;5054385;28;20078;-74
2023/05/14 08:26:47;;;;;;;6.75;5.18;;;;;;;15.94;54.97;98716.28;5054543;28;20377;-73
2023/05/14 08:29:13;;;;;;;5.18;4.50;;;;;;;16.00;55.52;98712.22;5054300;28;20029;-74
2023/05/14 08:31:39;;;;;;;6.13;4.60;;;;;;;16.09;55.17;98706.66;5054119;28;20442;-74
2023/05/14 08:34:05;;;;;;;6.57;4.72;;;;;;;16.14;54.37;98708.44;5054260;28;20021;-74
2023/05/14 08:36:31;;;;;;;6.00;4.72;;;;;;;16.19;54.64;98708.28;5054124;28;20112;-74
2023/05/14 08:38:57;;;;;;;4.95;4.28;;;;;;;16.26;54.76;98705.81;5050875;28;20132;-74
2023/05/14 08:41:22;;;;;;;6.18;5.10;;;;;;;16.33;54.58;98708.91;5052728;28;20437;-74
2023/05/14 08:44:13;;;;;;;5.20;4.70;;;;;;;16.41;54.45;98704.50;5051516;28;20442;-74
2023/05/14 08:46:40;;;;;;;5.13;4.45;;;;;;;16.49;54.67;98709.19;5052366;28;20025;-74
2023/05/14 08:49:17;;;;;;;5.18;4.68;;;;;;;16.54;54.06;98705.44;5052174;28;20083;-73
2023/05/14 08:51:47;;;;;;;4.97;4.47;;;;;;;16.58;53.63;98697.28;5052426;28;20028;-74
2023/05/14 08:54:15;;;;;;;6.85;4.68;;;;;;;16.59;53.60;98696.94;5052174;28;20016;-73
2023/05/14 08:56:44;;;;;;;5.67;4.93;;;;;;;16.62;53.65;98696.28;5052425;28;20461;-73
2023/05/14 08:59:09;;;;;;;5.93;4.75;;;;;;;16.70;53.59;98689.13;5052601;28;20025;-74
2023/05/14 09:01:37;;;;;;;5.00;4.43;;;;;;;16.77;53.75;98683.06;5053079;28;20021;-73
2023/05/14 09:04:07;;;;;;;6.50;4.72;;;;;;;16.84;53.29;98691.66;5051462;28;20104;-74
2023/05/14 09:06:34;;;;;;;5.78;4.63;;;;;;;16.88;52.79;98687.09;5052043;28;20052;-73
2023/05/14 09:08:59;;;;;;;5.80;4.97;;;;;;;16.90;52.98;98686.75;5052058;28;20033;-74
2023/05/14 09:11:25;;;;;;;6.13;4.82;;;;;;;16.98;53.21;98683.16;5048369;28;20013;-73
2023/05/14 09:13:50;;;;;;;5.82;4.88;;;;;;;17.04;52.97;98681.81;5050312;28;20436;-73
2023/05/14 09:16:17;;;;;;;6.32;4.95;;;;;;;17.13;52.87;98676.22;5052196;28;20104;-73
2023/05/14 09:18:44;;;;;;;4.95;4.45;;;;;;;17.23;52.89;98678.63;5052470;28;20029;-73
2023/05/14 09:21:11;;;;;;;6.50;4.75;;;;;;;17.30;52.62;98677.28;5052203;28;20381;-73
2023/05/14 09:23:41;;;;;;;5.68;4.22;;;;;;;17.39;52.29;98678.84;5052027;28;20487;-73
2023/05/14 09:26:06;;;;;;;5.07;4.00;;;;;;;17.48;52.08;98687.09;5051639;28;20033;-73
2023/05/14 09:28:31;;;;;;;5.10;4.20;;;;;;;17.55;52.23;98684.59;5052594;28;20073;-73
2023/05/14 09:30:57;;;;;;;4.68;3.83;;;;;;;17.63;51.78;98682.91;5051953;28;20082;-73
2023/05/14 09:33:29;;;;;;;4.65;4.18;;;;;;;17.68;51.62;98676.34;5052005;28;20029;-74
2023/05/14 09:35:59;;;;;;;4.70;4.20;;;;;;;17.75;51.38;98675.78;5049334;28;20032;-72
2023/05/14 09:38:31;;;;;;;5.05;3.83;;;;;;;17.89;51.70;98681.06;5052021;28;20426;-73
2023/05/14 09:40:58;;;;;;;4.45;3.97;;;;;;;17.95;51.34;98666.63;5052181;28;20021;-72
2023/05/14 09:43:24;;;;;;;5.00;4.30;;;;;;;18.06;51.53;98678.16;5052068;28;20056;-72
2023/05/14 09:45:50;;;;;;;5.45;4.25;;;;;;;18.15;51.27;98666.97;5050750;28;20037;-74
2023/05/14 09:48:16;;;;;;;5.32;3.90;;;;;;;18.24;51.29;98661.31;5052250;28;20025;-73
2023/05/14 09:50:45;;;;;;;4.40;4.00;;;;;;;18.32;50.17;98665.97;5052181;28;20363;-73
2023/05/14 09:53:12;;;;;;;5.53;4.80;;;;;;;18.36;50.53;98655.81;5052283;28;20444;-74
2023/05/14 09:55:38;;;;;;;5.40;4.88;;;;;;;18.48;50.89;98654.22;5054060;28;20055;-74
2023/05/14 09:58:04;;;;;;;4.90;4.40;;;;;;;18.58;50.87;98643.47;5056356;28;20435;-75
2023/05/14 10:00:34;;;;;;;9.57;4.80;;;;;;;18.72;50.84;98642.34;5056154;28;20342;-72
2023/05/14 10:03:04;;;;;;;;;;;;;;;18.81;50.84;98640.22;5056310;28;20444;-74
2023/05/14 10:05:33;;;;;;;5.72;3.63;;;;;;;18.91;50.56;98638.97;5055809;28;19913;-74
2023/05/14 10:08:22;;;;;;;3.78;3.45;;;;;;;18.98;50.18;98635.63;5055579;28;20031;-73
2023/05/14 10:10:50;;;;;;;7.68;4.70;;;;;;;19.10;50.00;98634.81;5053202;28;20501;-73
2023/05/14 10:13:21;;;;;;;4.97;4.32;;;;;;;19.18;50.15;98629.13;5055624;28;20017;-73
2023/05/14 10:15:50;;;;;;;5.18;3.78;;;;;;;19.28;49.82;98627.03;5053982;28;20028;-73
2023/05/14 10:18:18;;;;;;;3.60;3.30;;;;;;;19.36;49.25;98616.94;5056363;28;20025;-74
2023/05/14 10:20:52;;;;;;;5.00;3.33;;;;;;;19.39;49.01;98617.03;5055667;28;20033;-73
2023/05/14 10:23:18;;;;;;;5.63;4.28;;;;;;;19.46;48.87;98622.00;5055836;28;20025;-73
2023/05/14 10:25:44;;;;;;;5.22;4.20;;;;;;;19.50;48.73;98611.78;5055950;28;20025;-74
2023/05/14 10:28:10;;;;;;;7.18;4.93;;;;;;;19.57;48.97;98611.19;5055892;28;20029;-74
2023/05/14 10:30:43;;;;;;;8.52;4.97;;;;;;;19.57;48.67;98612.00;5055814;28;20075;-74
2023/05/14 10:33:12;;;;;;;5.50;4.40;;;;;;;19.59;48.59;98606.91;5055558;28;20025;-73
2023/05/14 10:35:58;;;;;;;5.70;4.53;;;;;;;19.58;48.29;98605.28;5055860;28;20025;-73
2023/05/14 10:38:28;;;;;;;5.15;4.38;;;;;;;19.60;47.88;98596.56;5055214;28;20056;-73
2023/05/14 10:41:05;;;;;;;6.05;4.38;;;;;;;19.62;48.01;98600.63;5055402;28;20428;-74
2023/05/14 10:43:36;;;;;;;5.78;3.63;;;;;;;19.65;47.87;98607.44;5055380;28;20037;-74
2023/05/14 10:46:01;;;;;;;4.80;4.25;;;;;;;19.68;47.69;98605.94;5055244;28;20037;-74
2023/05/14 10:48:27;;;;;;;4.25;3.60;;;;;;;19.72;47.54;98601.28;5055361;28;20127;-74
2023/05/14 10:50:55;;;;;;;4.00;3.60;;;;;;;19.74;47.22;98608.13;5055227;28;20029;-74
2023/05/14 10:53:30;;;;;;;5.88;4.45;;;;;;;19.77;47.11;98606.59;5055206;28;20061;-74
2023/05/14 10:55:56;;;;;;;8.77;6.03;;;;;;;19.81;47.05;98606.69;5055035;28;20037;-74
2023/05/14 10:58:21;;;;;;;7.18;5.63;;;;;;;19.83;46.69;98612.72;5055080;28;20033;-72
2023/05/14 11:00:48;;;;;;;6.38;5.72;;;;;;;19.85;46.74;98605.63;5054998;28;20028;-73
2023/05/14 11:03:15;;;;;;;5.60;3.50;;;;;;;19.91;46.56;98606.22;5055772;28;20028;-74
2023/05/14 11:05:40;;;;;;;4.28;3.30;;;;;;;19.96;46.54;98605.97;5055692;28;20029;-75
2023/05/14 11:08:07;;;;;;;4.38;3.58;;;;;;;19.99;46.50;98601.66;5055135;28;20066;-74
2023/05/14 11:10:34;;;;;;;5.88;3.72;;;;;;;20.01;46.11;98591.78;5055541;28;20036;-74
2023/05/14 11:13:00;;;;;;;4.07;3.40;;;;;;;20.00;45.54;98594.94;5054504;28;20035;-74
2023/05/14 11:15:27;;;;;;;4.93;3.40;;;;;;;19.99;45.74;98590.53;5055447;28;20029;-74
2023/05/14 11:17:52;;;;;;;4.38;3.70;;;;;;;20.03;45.64;98592.22;5055608;28;20029;-73
2023/05/14 11:20:19;;;;;;;3.92;2.90;;;;;;;20.04;45.52;98590.25;5052522;28;20036;-75
2023/05/14 11:22:45;;;;;;;3.70;3.30;;;;;;;20.02;45.52;98596.19;5055077;28;20036;-76
2023/05/14 11:25:14;;;;;;;6.30;3.92;;;;;;;20.03;45.30;98592.22;5054585;28;20032;-75
2023/05/14 11:27:42;;;;;;;5.55;3.63;;;;;;;20.05;45.54;98597.44;5054839;28;20065;-76